createdAt,value
2022-12-18T00:00:52.281Z,0.00
2022-12-18T00:01:52.296Z,0.00
2022-12-18T00:02:52.315Z,0.00
2022-12-18T00:03:52.398Z,0.00
2022-12-18T00:04:52.172Z,0.00
2022-12-18T00:05:52.141Z,0.00
2022-12-18T00:06:52.115Z,0.00
2022-12-18T00:07:52.091Z,0.00
2022-12-18T00:08:52.074Z,0.00
2022-12-18T00:09:52.037Z,0.00
2022-12-18T00:10:52.007Z,0.00
2022-12-18T00:11:51.980Z,0.00
2022-12-18T00:12:51.958Z,0.00
2022-12-18T00:13:51.932Z,0.00
2022-12-18T00:14:51.914Z,0.00
2022-12-18T00:15:51.932Z,0.00
2022-12-18T00:16:51.847Z,0.00
2022-12-18T00:17:52.510Z,0.00
2022-12-18T00:18:51.798Z,0.00
2022-12-18T00:19:51.767Z,0.00
2022-12-18T00:20:51.750Z,0.00
2022-12-18T00:21:51.726Z,0.00
2022-12-18T00:22:51.689Z,0.00
2022-12-18T00:23:51.667Z,0.00
2022-12-18T00:24:51.642Z,0.00
2022-12-18T00:25:51.611Z,0.00
2022-12-18T00:26:51.582Z,0.00
2022-12-18T00:27:51.599Z,0.00
2022-12-18T00:28:51.539Z,0.00
2022-12-18T00:29:51.501Z,0.00
2022-12-18T00:30:51.509Z,0.00
2022-12-18T00:31:51.503Z,0.00
2022-12-18T00:35:55.296Z,0.00
2022-12-18T00:36:55.200Z,0.00
2022-12-18T00:37:55.180Z,0.00
2022-12-18T00:38:55.122Z,0.00
2022-12-18T00:39:55.111Z,0.00
2022-12-18T00:40:55.052Z,0.00
2022-12-18T00:41:55.026Z,0.00
2022-12-18T00:44:42.307Z,0.00
2022-12-18T00:45:42.189Z,0.00
2022-12-18T00:55:11.421Z,0.00
2022-12-18T00:56:00.871Z,0.00
2022-12-18T00:58:33.357Z,0.00
2022-12-18T00:59:33.330Z,0.00
2022-12-18T01:01:59.285Z,0.00
2022-12-18T01:02:59.076Z,0.00
2022-12-18T01:10:35.103Z,0.00
2022-12-18T01:11:35.010Z,0.00
2022-12-18T01:13:41.775Z,0.00
2022-12-18T01:14:41.358Z,0.00
2022-12-18T01:16:47.031Z,0.00
2022-12-18T01:17:46.942Z,0.00
2022-12-18T01:20:11.939Z,0.00
2022-12-18T01:21:11.917Z,0.00
2022-12-18T01:24:46.721Z,0.00
2022-12-18T01:25:28.649Z,0.00
2022-12-18T01:26:28.655Z,0.00
2022-12-18T01:27:28.616Z,0.00
2022-12-18T01:28:28.557Z,0.00
2022-12-18T01:29:28.601Z,0.00
2022-12-18T01:30:28.507Z,0.00
2022-12-18T01:31:28.559Z,0.00
2022-12-18T01:32:28.450Z,0.00
2022-12-18T01:33:28.417Z,0.00
2022-12-18T01:34:28.394Z,0.00
2022-12-18T01:35:28.370Z,0.00
2022-12-18T01:36:28.339Z,0.00
2022-12-18T01:37:28.322Z,0.00
2022-12-18T01:38:28.289Z,0.00
2022-12-18T01:39:28.286Z,0.00
2022-12-18T01:40:28.236Z,0.00
2022-12-18T01:41:28.245Z,0.00
2022-12-18T01:42:28.183Z,0.00
2022-12-18T01:43:28.152Z,0.00
2022-12-18T01:44:28.150Z,0.00
2022-12-18T01:45:28.139Z,0.00
2022-12-18T01:46:28.074Z,0.00
2022-12-18T01:47:28.047Z,0.00
2022-12-18T01:48:28.022Z,0.00
2022-12-18T01:49:27.993Z,0.00
2022-12-18T01:50:27.977Z,0.00
2022-12-18T01:51:27.944Z,0.00
2022-12-18T02:16:32.291Z,0.00
2022-12-18T02:17:32.103Z,0.00
2022-12-18T02:21:29.544Z,0.00
2022-12-18T02:22:29.464Z,0.00
2022-12-18T02:25:46.863Z,0.00
2022-12-18T02:26:46.792Z,0.00
2022-12-18T02:30:18.785Z,0.00
2022-12-18T02:31:17.175Z,0.00
2022-12-18T02:33:41.437Z,0.00
2022-12-18T02:34:40.915Z,0.00
2022-12-18T02:35:40.893Z,0.00
2022-12-18T02:36:40.814Z,0.00
2022-12-18T02:37:40.846Z,0.00
2022-12-18T02:38:40.745Z,0.00
2022-12-18T02:39:40.631Z,0.00
2022-12-18T02:40:40.707Z,0.00
2022-12-18T02:41:40.669Z,0.00
2022-12-18T02:42:40.642Z,0.00
2022-12-18T02:43:42.606Z,0.00
2022-12-18T02:44:40.584Z,0.00
2022-12-18T02:45:40.609Z,0.00
2022-12-18T02:46:40.529Z,0.00
2022-12-18T02:47:40.503Z,0.00
2022-12-18T02:48:40.476Z,0.00
2022-12-18T02:49:40.553Z,0.00
2022-12-18T02:50:40.426Z,0.00
2022-12-18T02:51:40.421Z,0.00
2022-12-18T02:52:40.382Z,0.00
2022-12-18T02:53:40.773Z,0.00
2022-12-18T02:54:40.316Z,0.00
2022-12-18T02:55:40.332Z,0.00
2022-12-18T02:56:40.289Z,0.00
2022-12-18T02:57:40.277Z,0.00
2022-12-18T02:58:40.113Z,0.00
2022-12-18T02:59:40.190Z,0.00
2022-12-18T03:00:40.176Z,0.00
2022-12-18T03:01:40.320Z,0.00
2022-12-18T03:02:40.435Z,0.00
2022-12-18T03:03:40.518Z,0.00
2022-12-18T03:04:40.082Z,0.00
2022-12-18T03:05:40.118Z,0.00
2022-12-18T03:06:40.001Z,0.00
2022-12-18T03:07:40.004Z,0.00
2022-12-18T03:08:39.978Z,0.00
2022-12-18T03:09:39.917Z,0.00
2022-12-18T03:10:39.893Z,0.00
2022-12-18T03:11:39.865Z,0.00
2022-12-18T03:12:39.889Z,0.00
2022-12-18T03:13:40.263Z,0.00
2022-12-18T03:14:39.794Z,0.00
2022-12-18T03:15:39.761Z,0.00
2022-12-18T03:16:39.782Z,0.00
2022-12-18T03:17:39.707Z,0.00
2022-12-18T03:18:39.686Z,0.00
2022-12-18T03:19:39.656Z,0.00
2022-12-18T03:20:39.630Z,0.00
2022-12-18T03:21:41.099Z,0.00
2022-12-18T03:22:39.576Z,0.00
2022-12-18T03:23:39.915Z,0.00
2022-12-18T03:24:39.524Z,0.00
2022-12-18T03:25:39.507Z,0.00
2022-12-18T03:26:39.472Z,0.00
2022-12-18T03:27:39.451Z,0.00
2022-12-18T03:28:39.416Z,0.00
2022-12-18T03:29:39.397Z,0.00
2022-12-18T03:30:39.424Z,0.00
2022-12-18T03:31:39.338Z,0.00
2022-12-18T03:32:39.316Z,0.00
2022-12-18T03:33:39.637Z,0.00
2022-12-18T03:34:39.274Z,0.00
2022-12-18T03:35:39.263Z,0.00
2022-12-18T03:36:39.205Z,0.00
2022-12-18T04:21:33.704Z,0.00
2022-12-18T04:22:19.673Z,0.00
2022-12-18T04:27:12.342Z,0.00
2022-12-18T04:27:58.590Z,0.00
2022-12-18T04:32:52.344Z,0.00
2022-12-18T04:33:49.704Z,0.00
2022-12-18T04:35:58.719Z,0.00
2022-12-18T04:36:58.725Z,0.00
2022-12-18T04:37:58.608Z,0.00
2022-12-18T04:38:58.599Z,0.00
2022-12-18T04:39:58.551Z,0.00
2022-12-18T04:40:58.549Z,0.00
2022-12-18T04:41:58.504Z,0.00
2022-12-18T04:42:58.548Z,0.00
2022-12-18T04:43:58.473Z,0.00
2022-12-18T04:44:59.120Z,0.00
2022-12-18T04:45:58.422Z,0.00
2022-12-18T04:46:58.369Z,0.00
2022-12-18T04:47:58.349Z,0.00
2022-12-18T04:48:58.348Z,0.00
2022-12-18T04:49:58.286Z,0.00
2022-12-18T04:50:58.266Z,0.00
2022-12-18T04:51:58.250Z,0.00
2022-12-18T04:52:58.308Z,0.00
2022-12-18T04:53:58.204Z,0.00
2022-12-18T04:54:58.156Z,0.00
2022-12-18T04:55:58.131Z,0.00
2022-12-18T04:56:58.134Z,0.00
2022-12-18T04:57:58.115Z,0.00
2022-12-18T04:58:58.052Z,0.00
2022-12-18T04:59:58.620Z,0.00
2022-12-18T05:00:58.029Z,0.00
2022-12-18T05:01:58.068Z,0.00
2022-12-18T05:02:58.054Z,0.00
2022-12-18T05:03:57.973Z,0.00
2022-12-18T05:04:57.892Z,0.00
2022-12-18T05:05:57.868Z,0.00
2022-12-18T05:06:57.866Z,0.00
2022-12-18T05:07:57.817Z,0.00
2022-12-18T05:08:57.894Z,0.00
2022-12-18T05:09:57.766Z,0.00
2022-12-18T05:10:57.735Z,0.00
2022-12-18T05:11:57.724Z,0.00
2022-12-18T05:12:57.694Z,0.00
2022-12-18T05:13:57.688Z,0.00
2022-12-18T05:14:57.641Z,0.00
2022-12-18T05:15:57.682Z,0.00
2022-12-18T05:17:00.842Z,0.00
2022-12-18T05:17:57.578Z,0.00
2022-12-18T05:18:57.563Z,0.00
2022-12-18T05:31:24.490Z,0.00
2022-12-18T05:32:24.243Z,0.00
2022-12-18T05:33:24.188Z,0.00
2022-12-18T05:37:42.525Z,0.00
2022-12-18T05:38:35.970Z,0.00
2022-12-18T06:04:52.680Z,0.00
2022-12-18T06:05:43.912Z,0.00
2022-12-18T06:07:43.193Z,0.00
2022-12-18T06:08:57.961Z,0.00
2022-12-18T06:11:08.117Z,0.00
2022-12-18T06:11:58.163Z,0.00
2022-12-18T06:34:12.708Z,0.00
2022-12-18T06:35:12.612Z,0.00
2022-12-18T06:51:53.826Z,0.00
2022-12-18T06:52:53.727Z,0.00
2022-12-18T06:54:48.064Z,0.00
2022-12-18T06:55:47.130Z,0.00
2022-12-18T06:57:51.817Z,0.00
2022-12-18T06:58:51.786Z,0.00
2022-12-18T07:00:56.415Z,0.00
2022-12-18T07:01:56.566Z,0.00
2022-12-18T07:02:56.431Z,0.00
2022-12-18T07:03:56.307Z,0.00
2022-12-18T07:04:56.282Z,0.00
2022-12-18T07:05:56.255Z,0.00
2022-12-18T07:06:56.228Z,0.00
2022-12-18T07:07:56.310Z,0.00
2022-12-18T07:08:56.198Z,0.00
2022-12-18T07:09:56.153Z,0.00
2022-12-18T07:10:56.612Z,0.00
2022-12-18T07:11:56.094Z,0.00
2022-12-18T07:12:56.068Z,0.00
2022-12-18T07:13:56.046Z,0.00
2022-12-18T07:14:56.015Z,0.00
2022-12-18T07:15:56.047Z,0.00
2022-12-18T07:16:55.997Z,0.00
2022-12-18T07:17:55.940Z,5.63
2022-12-18T07:18:55.910Z,5.63
2022-12-18T07:19:55.885Z,5.63
2022-12-18T07:20:55.859Z,5.63
2022-12-18T07:21:55.831Z,5.63
2022-12-18T07:22:56.482Z,5.63
2022-12-18T07:23:55.882Z,5.63
2022-12-18T07:24:55.751Z,5.63
2022-12-18T07:25:55.728Z,5.63
2022-12-18T07:26:55.700Z,5.63
2022-12-18T07:27:55.674Z,5.63
2022-12-18T07:28:55.653Z,11.25
2022-12-18T07:29:55.622Z,11.25
2022-12-18T07:30:55.599Z,11.25
2022-12-18T07:31:55.676Z,11.25
2022-12-18T07:32:55.544Z,11.25
2022-12-18T07:33:55.527Z,11.25
2022-12-18T07:34:55.489Z,16.88
2022-12-18T07:35:55.463Z,16.88
2022-12-18T07:36:55.443Z,16.88
2022-12-18T07:37:55.409Z,16.88
2022-12-18T07:38:55.387Z,16.88
2022-12-18T07:39:55.467Z,16.88
2022-12-18T07:40:55.335Z,16.88
2022-12-18T07:41:55.310Z,16.88
2022-12-18T07:42:55.283Z,16.88
2022-12-18T07:43:55.253Z,16.88
2022-12-18T07:44:55.230Z,22.50
2022-12-18T07:45:55.248Z,22.50
2022-12-18T07:46:55.178Z,22.50
2022-12-18T07:47:55.150Z,22.50
2022-12-18T07:48:55.126Z,22.50
2022-12-18T07:49:55.095Z,22.50
2022-12-18T07:50:55.072Z,22.50
2022-12-18T07:51:55.049Z,22.50
2022-12-18T07:52:55.020Z,22.50
2022-12-18T07:53:54.995Z,22.50
2022-12-18T07:54:54.968Z,28.13
2022-12-18T07:56:25.412Z,28.13
2022-12-18T07:56:54.916Z,28.13
2022-12-18T07:57:59.403Z,28.13
2022-12-18T07:58:54.869Z,28.13
2022-12-18T07:59:54.839Z,28.13
2022-12-18T08:00:54.878Z,28.13
2022-12-18T08:01:54.968Z,28.13
2022-12-18T08:02:54.866Z,28.13
2022-12-18T08:03:54.730Z,28.13
2022-12-18T08:04:54.711Z,33.75
2022-12-18T08:05:54.680Z,33.75
2022-12-18T08:06:54.656Z,39.38
2022-12-18T08:07:54.630Z,39.38
2022-12-18T08:08:54.680Z,39.38
2022-12-18T08:09:54.582Z,45.00
2022-12-18T08:10:54.553Z,50.63
2022-12-18T08:11:54.627Z,50.63
2022-12-18T08:12:54.501Z,50.63
2022-12-18T08:13:54.476Z,56.25
2022-12-18T08:14:54.453Z,56.25
2022-12-18T08:15:54.424Z,61.88
2022-12-18T08:16:54.441Z,67.50
2022-12-18T08:17:54.374Z,67.50
2022-12-18T08:18:54.354Z,67.50
2022-12-18T08:19:54.320Z,73.13
2022-12-18T08:20:54.297Z,78.75
2022-12-18T08:21:54.271Z,84.38
2022-12-18T08:22:54.244Z,90.00
2022-12-18T08:23:54.219Z,95.63
2022-12-18T08:24:54.195Z,95.63
2022-12-18T08:25:54.168Z,101.25
2022-12-18T08:27:13.459Z,106.88
2022-12-18T08:27:54.215Z,112.50
2022-12-18T08:28:54.093Z,118.13
2022-12-18T08:29:54.068Z,123.75
2022-12-18T08:30:54.071Z,123.75
2022-12-18T08:31:54.084Z,129.38
2022-12-18T08:32:53.994Z,135.00
2022-12-18T08:33:53.970Z,140.63
2022-12-18T08:34:53.951Z,146.25
2022-12-18T08:35:53.923Z,146.25
2022-12-18T08:36:53.899Z,151.88
2022-12-18T08:37:53.879Z,157.50
2022-12-18T08:38:53.856Z,185.63
2022-12-18T08:39:53.830Z,225.00
2022-12-18T08:40:53.823Z,241.88
2022-12-18T08:41:53.780Z,225.00
2022-12-18T08:42:53.756Z,196.88
2022-12-18T08:43:53.834Z,180.00
2022-12-18T08:44:53.709Z,168.75
2022-12-18T08:45:53.773Z,163.13
2022-12-18T08:46:53.667Z,180.00
2022-12-18T08:47:53.643Z,213.75
2022-12-18T08:48:53.624Z,236.25
2022-12-18T08:49:53.597Z,241.88
2022-12-18T08:50:53.577Z,225.00
2022-12-18T08:51:53.551Z,180.00
2022-12-18T08:52:53.538Z,146.25
2022-12-18T08:53:53.513Z,146.25
2022-12-18T08:54:53.487Z,146.25
2022-12-18T08:55:53.466Z,146.25
2022-12-18T08:56:53.442Z,163.13
2022-12-18T08:57:53.420Z,168.75
2022-12-18T08:58:53.400Z,163.13
2022-12-18T08:59:53.472Z,146.25
2022-12-18T09:00:53.393Z,135.00
2022-12-18T09:01:53.404Z,135.00
2022-12-18T09:02:53.387Z,129.38
2022-12-18T09:03:53.288Z,123.75
2022-12-18T09:04:57.385Z,112.50
2022-12-18T09:05:53.260Z,118.13
2022-12-18T09:06:53.225Z,118.13
2022-12-18T09:07:53.200Z,123.75
2022-12-18T09:08:53.180Z,135.00
2022-12-18T09:09:53.161Z,140.63
2022-12-18T09:10:53.134Z,151.88
2022-12-18T09:11:53.115Z,157.50
2022-12-18T09:12:53.088Z,163.13
2022-12-18T09:13:53.074Z,168.75
2022-12-18T09:14:53.042Z,168.75
2022-12-18T09:15:53.113Z,157.50
2022-12-18T09:16:53.064Z,163.13
2022-12-18T09:17:52.980Z,174.38
2022-12-18T09:18:52.959Z,191.25
2022-12-18T09:19:52.933Z,191.25
2022-12-18T09:20:52.911Z,208.13
2022-12-18T09:21:52.889Z,230.63
2022-12-18T09:22:52.868Z,236.25
2022-12-18T09:23:52.847Z,241.88
2022-12-18T09:24:52.823Z,247.50
2022-12-18T09:25:52.808Z,275.63
2022-12-18T09:26:57.673Z,292.50
2022-12-18T09:27:52.759Z,281.25
2022-12-18T09:28:52.745Z,281.25
2022-12-18T09:29:52.714Z,281.25
2022-12-18T09:30:52.735Z,286.88
2022-12-18T09:31:52.774Z,275.63
2022-12-18T09:32:52.647Z,270.00
2022-12-18T09:33:52.626Z,286.88
2022-12-18T09:34:52.608Z,275.63
2022-12-18T09:35:52.588Z,298.13
2022-12-18T09:36:52.568Z,298.13
2022-12-18T09:37:52.549Z,292.50
2022-12-18T09:38:52.523Z,281.25
2022-12-18T09:39:52.504Z,286.88
2022-12-18T09:40:52.490Z,286.88
2022-12-18T09:41:52.480Z,309.38
2022-12-18T09:42:52.446Z,315.00
2022-12-18T09:43:52.426Z,315.00
2022-12-18T09:44:52.443Z,326.25
2022-12-18T09:45:52.435Z,337.50
2022-12-18T09:46:52.362Z,315.00
2022-12-18T09:47:52.440Z,320.63
2022-12-18T09:48:52.326Z,309.38
2022-12-18T09:49:52.307Z,326.25
2022-12-18T09:50:52.288Z,320.63
2022-12-18T09:51:52.270Z,315.00
2022-12-18T09:52:52.247Z,292.50
2022-12-18T09:53:52.256Z,348.75
2022-12-18T09:54:52.257Z,309.38
2022-12-18T09:55:52.190Z,348.75
2022-12-18T09:56:52.187Z,298.13
2022-12-18T09:57:52.211Z,343.13
2022-12-18T09:58:52.135Z,348.75
2022-12-18T09:59:52.138Z,337.50
2022-12-18T10:00:52.179Z,315.00
2022-12-18T10:01:52.189Z,337.50
2022-12-18T10:02:52.271Z,343.13
2022-12-18T10:03:52.150Z,371.25
2022-12-18T10:04:52.069Z,365.63
2022-12-18T10:05:52.011Z,315.00
2022-12-18T10:06:51.994Z,376.88
2022-12-18T10:07:51.976Z,354.38
2022-12-18T10:08:51.957Z,371.25
2022-12-18T10:09:51.941Z,348.75
2022-12-18T10:10:51.924Z,354.38
2022-12-18T10:11:51.933Z,331.88
2022-12-18T10:12:51.911Z,326.25
2022-12-18T10:13:51.878Z,337.50
2022-12-18T10:14:51.851Z,270.00
2022-12-18T10:15:51.867Z,331.88
2022-12-18T10:16:51.813Z,298.13
2022-12-18T10:17:51.799Z,258.75
2022-12-18T10:18:51.789Z,241.88
2022-12-18T10:19:51.857Z,399.38
2022-12-18T10:20:51.747Z,438.75
2022-12-18T10:21:51.782Z,450.00
2022-12-18T10:22:51.707Z,376.88
2022-12-18T10:23:51.691Z,275.63
2022-12-18T10:24:51.670Z,528.75
2022-12-18T10:25:51.666Z,478.13
2022-12-18T10:26:51.635Z,337.50
2022-12-18T10:27:51.619Z,253.13
2022-12-18T10:28:51.607Z,506.25
2022-12-18T10:29:51.592Z,376.88
2022-12-18T10:30:51.603Z,568.13
2022-12-18T10:31:51.587Z,483.75
2022-12-18T10:32:51.529Z,478.13
2022-12-18T10:33:51.590Z,421.88
2022-12-18T10:34:56.679Z,500.63
2022-12-18T10:35:51.581Z,461.25
2022-12-18T10:36:51.469Z,427.50
2022-12-18T10:37:51.439Z,489.38
2022-12-18T10:38:51.420Z,393.75
2022-12-18T10:39:51.440Z,483.75
2022-12-18T10:40:51.454Z,461.25
2022-12-18T10:41:51.378Z,433.13
2022-12-18T10:42:51.354Z,438.75
2022-12-18T10:43:51.340Z,427.50
2022-12-18T10:44:51.318Z,281.25
2022-12-18T10:45:51.301Z,326.25
2022-12-18T10:46:51.341Z,309.38
2022-12-18T10:47:51.270Z,309.38
2022-12-18T10:48:51.252Z,292.50
2022-12-18T10:49:51.233Z,253.13
2022-12-18T10:51:51.299Z,286.88
2022-12-18T10:52:51.179Z,326.25
2022-12-18T10:53:51.163Z,326.25
2022-12-18T10:54:51.141Z,298.13
2022-12-18T10:55:51.129Z,309.38
2022-12-18T10:56:51.107Z,236.25
2022-12-18T10:57:51.090Z,208.13
2022-12-18T10:58:51.092Z,320.63
2022-12-18T10:59:51.054Z,337.50
2022-12-18T11:00:51.031Z,331.88
2022-12-18T11:01:51.098Z,309.38
2022-12-18T11:02:51.240Z,309.38
2022-12-18T11:03:51.071Z,247.50
2022-12-18T11:04:50.960Z,315.00
2022-12-18T11:05:50.941Z,292.50
2022-12-18T11:06:50.924Z,225.00
2022-12-18T11:07:51.015Z,298.13
2022-12-18T11:08:50.885Z,258.75
2022-12-18T11:09:50.868Z,309.38
2022-12-18T11:10:50.872Z,213.75
2022-12-18T11:11:50.834Z,253.13
2022-12-18T11:12:50.830Z,331.88
2022-12-18T11:13:50.794Z,225.00
2022-12-18T11:14:50.826Z,253.13
2022-12-18T11:15:50.826Z,281.25
2022-12-18T11:17:24.412Z,348.75
2022-12-18T11:17:50.720Z,376.88
2022-12-18T11:18:50.832Z,320.63
2022-12-18T11:19:50.682Z,427.50
2022-12-18T11:20:54.323Z,360.00
2022-12-18T11:21:50.645Z,286.88
2022-12-18T11:22:50.633Z,208.13
2022-12-18T11:23:50.697Z,202.50
2022-12-18T11:25:22.403Z,196.88
2022-12-18T11:25:50.580Z,185.63
2022-12-18T11:26:53.733Z,168.75
2022-12-18T11:27:50.527Z,202.50
2022-12-18T11:28:50.513Z,196.88
2022-12-18T11:29:50.496Z,281.25
2022-12-18T11:30:50.474Z,168.75
2022-12-18T11:31:50.478Z,180.00
2022-12-18T11:32:50.435Z,185.63
2022-12-18T11:34:19.851Z,157.50
2022-12-18T11:34:53.478Z,146.25
2022-12-18T11:35:50.375Z,146.25
2022-12-18T11:36:50.363Z,151.88
2022-12-18T11:37:50.452Z,146.25
2022-12-18T11:38:50.343Z,163.13
2022-12-18T11:39:50.416Z,253.13
2022-12-18T11:40:50.274Z,253.13
2022-12-18T11:41:50.270Z,135.00
2022-12-18T11:42:50.239Z,146.25
2022-12-18T11:43:50.222Z,185.63
2022-12-18T11:44:50.198Z,168.75
2022-12-18T11:45:50.182Z,213.75
2022-12-18T11:46:50.238Z,168.75
2022-12-18T11:47:50.197Z,191.25
2022-12-18T11:48:50.143Z,247.50
2022-12-18T11:49:50.118Z,258.75
2022-12-18T11:50:50.091Z,180.00
2022-12-18T11:51:50.073Z,219.38
2022-12-18T11:52:55.963Z,247.50
2022-12-18T11:53:50.021Z,180.00
2022-12-18T11:54:49.996Z,281.25
2022-12-18T11:55:50.079Z,309.38
2022-12-18T11:56:49.954Z,264.38
2022-12-18T11:57:49.967Z,264.38
2022-12-18T11:58:49.919Z,264.38
2022-12-18T11:59:49.902Z,236.25
2022-12-18T12:00:49.879Z,230.63
2022-12-18T12:01:50.046Z,219.38
2022-12-18T12:02:49.923Z,236.25
2022-12-18T12:03:49.919Z,247.50
2022-12-18T12:04:49.850Z,247.50
2022-12-18T12:05:49.788Z,241.88
2022-12-18T12:06:49.788Z,230.63
2022-12-18T12:07:49.742Z,247.50
2022-12-18T12:08:49.724Z,213.75
2022-12-18T12:09:49.776Z,219.38
2022-12-18T12:10:49.760Z,219.38
2022-12-18T12:11:49.776Z,202.50
2022-12-18T12:12:49.647Z,208.13
2022-12-18T12:13:49.658Z,196.88
2022-12-18T12:14:49.602Z,208.13
2022-12-18T12:15:49.663Z,185.63
2022-12-18T12:16:49.600Z,180.00
2022-12-18T12:17:49.544Z,180.00
2022-12-18T12:18:49.522Z,180.00
2022-12-18T12:19:49.503Z,174.38
2022-12-18T12:20:49.500Z,174.38
2022-12-18T12:21:49.459Z,168.75
2022-12-18T12:22:50.660Z,163.13
2022-12-18T12:23:49.433Z,163.13
2022-12-18T12:24:49.401Z,151.88
2022-12-18T12:25:49.403Z,146.25
2022-12-18T12:26:49.360Z,146.25
2022-12-18T12:27:49.525Z,146.25
2022-12-18T12:28:49.320Z,146.25
2022-12-18T12:29:49.308Z,140.63
2022-12-18T12:30:49.818Z,135.00
2022-12-18T12:31:49.344Z,129.38
2022-12-18T12:32:49.274Z,129.38
2022-12-18T12:33:49.224Z,123.75
2022-12-18T12:34:49.260Z,118.13
2022-12-18T12:35:49.182Z,118.13
2022-12-18T12:36:49.174Z,118.13
2022-12-18T12:37:49.147Z,112.50
2022-12-18T12:38:52.151Z,112.50
2022-12-18T12:39:49.195Z,118.13
2022-12-18T12:40:56.992Z,112.50
2022-12-18T12:41:49.069Z,112.50
2022-12-18T12:42:49.055Z,112.50
2022-12-18T12:43:50.323Z,112.50
2022-12-18T12:44:54.256Z,112.50
2022-12-18T12:45:49.084Z,106.88
2022-12-18T12:46:48.956Z,106.88
2022-12-18T12:47:48.955Z,106.88
2022-12-18T12:48:49.097Z,101.25
2022-12-18T12:49:50.814Z,101.25
2022-12-18T12:50:48.886Z,101.25
2022-12-18T12:51:48.873Z,95.63
2022-12-18T12:52:48.828Z,95.63
2022-12-18T12:53:48.988Z,95.63
2022-12-18T12:54:49.090Z,95.63
2022-12-18T12:55:49.742Z,90.00
2022-12-18T12:56:48.744Z,90.00
2022-12-18T12:57:48.729Z,90.00
2022-12-18T12:58:48.836Z,90.00
2022-12-18T12:59:49.158Z,84.38
2022-12-18T13:00:48.994Z,84.38
2022-12-18T13:01:48.818Z,84.38
2022-12-18T13:02:48.617Z,84.38
2022-12-18T13:03:48.927Z,78.75
2022-12-18T13:04:48.584Z,78.75
2022-12-18T13:05:48.559Z,78.75
2022-12-18T13:06:48.548Z,78.75
2022-12-18T13:07:48.518Z,78.75
2022-12-18T13:08:48.489Z,78.75
2022-12-18T13:09:48.483Z,78.75
2022-12-18T13:10:48.446Z,78.75
2022-12-18T13:11:48.431Z,78.75
2022-12-18T13:12:48.411Z,78.75
2022-12-18T13:13:48.771Z,78.75
2022-12-18T13:14:48.411Z,73.13
2022-12-18T13:15:48.455Z,73.13
2022-12-18T13:16:48.654Z,73.13
2022-12-18T13:17:49.455Z,73.13
2022-12-18T13:18:48.279Z,67.50
2022-12-18T13:19:48.364Z,67.50
2022-12-18T13:20:53.782Z,67.50
2022-12-18T13:21:48.221Z,67.50
2022-12-18T13:22:48.188Z,67.50
2022-12-18T13:23:48.275Z,67.50
2022-12-18T13:24:48.327Z,61.88
2022-12-18T13:25:48.524Z,61.88
2022-12-18T13:26:48.205Z,61.88
2022-12-18T13:27:48.106Z,61.88
2022-12-18T13:28:48.065Z,61.88
2022-12-18T13:29:48.960Z,61.88
2022-12-18T13:30:48.667Z,61.88
2022-12-18T13:31:53.389Z,61.88
2022-12-18T13:32:48.198Z,56.25
2022-12-18T13:34:47.995Z,56.25
2022-12-18T13:35:48.023Z,56.25
2022-12-18T13:36:48.166Z,56.25
2022-12-18T13:37:47.909Z,56.25
2022-12-18T13:38:47.847Z,56.25
2022-12-18T13:39:47.966Z,56.25
2022-12-18T13:40:48.559Z,56.25
2022-12-18T13:41:49.618Z,56.25
2022-12-18T13:42:47.757Z,56.25
2022-12-18T13:43:47.761Z,56.25
2022-12-18T13:44:47.726Z,56.25
2022-12-18T13:45:47.892Z,56.25
2022-12-18T13:46:47.781Z,56.25
2022-12-18T13:47:47.666Z,56.25
2022-12-18T13:48:47.736Z,56.25
2022-12-18T13:49:47.612Z,50.63
2022-12-18T13:50:47.585Z,50.63
2022-12-18T13:51:47.562Z,50.63
2022-12-18T13:52:47.544Z,50.63
2022-12-18T13:53:47.518Z,50.63
2022-12-18T13:54:47.598Z,50.63
2022-12-18T13:55:47.478Z,50.63
2022-12-18T13:56:47.455Z,45.00
2022-12-18T13:57:47.439Z,45.00
2022-12-18T13:58:47.406Z,45.00
2022-12-18T13:59:47.405Z,45.00
2022-12-18T14:00:47.400Z,45.00
2022-12-18T14:01:47.518Z,39.38
2022-12-18T14:02:47.614Z,39.38
2022-12-18T14:03:47.336Z,39.38
2022-12-18T14:04:47.383Z,39.38
2022-12-18T14:05:47.299Z,39.38
2022-12-18T14:06:47.278Z,39.38
2022-12-18T14:07:51.540Z,33.75
2022-12-18T14:08:47.194Z,33.75
2022-12-18T14:09:47.166Z,33.75
2022-12-18T14:10:49.010Z,33.75
2022-12-18T14:11:47.128Z,33.75
2022-12-18T14:12:47.106Z,33.75
2022-12-18T14:13:47.094Z,33.75
2022-12-18T14:14:47.069Z,33.75
2022-12-18T14:15:47.049Z,28.13
2022-12-18T14:16:47.066Z,28.13
2022-12-18T14:17:47.000Z,28.13
2022-12-18T14:18:46.975Z,28.13
2022-12-18T14:19:46.945Z,28.13
2022-12-18T14:20:52.314Z,28.13
2022-12-18T14:21:46.898Z,28.13
2022-12-18T14:22:46.873Z,28.13
2022-12-18T14:23:46.854Z,28.13
2022-12-18T14:24:46.847Z,22.50
2022-12-18T14:25:46.810Z,22.50
2022-12-18T14:26:46.788Z,22.50
2022-12-18T14:27:46.761Z,22.50
2022-12-18T14:28:46.741Z,22.50
2022-12-18T14:29:46.722Z,22.50
2022-12-18T14:30:46.723Z,22.50
2022-12-18T14:31:46.675Z,22.50
2022-12-18T14:32:46.660Z,22.50
2022-12-18T14:33:46.642Z,16.88
2022-12-18T14:34:46.606Z,16.88
2022-12-18T14:35:46.583Z,16.88
2022-12-18T14:36:46.658Z,16.88
2022-12-18T14:37:46.547Z,16.88
2022-12-18T14:38:46.512Z,16.88
2022-12-18T14:39:46.530Z,16.88
2022-12-18T14:40:46.472Z,16.88
2022-12-18T14:41:46.463Z,16.88
2022-12-18T14:42:46.430Z,11.25
2022-12-18T14:43:46.406Z,11.25
2022-12-18T14:45:14.842Z,11.25
2022-12-18T14:45:46.407Z,11.25
2022-12-18T14:46:46.343Z,11.25
2022-12-18T14:47:46.339Z,11.25
2022-12-18T14:48:46.297Z,11.25
2022-12-18T14:49:46.269Z,11.25
2022-12-18T14:50:46.246Z,11.25
2022-12-18T14:51:46.248Z,11.25
2022-12-18T14:52:46.301Z,11.25
2022-12-18T14:53:52.189Z,11.25
2022-12-18T14:54:46.154Z,5.63
2022-12-18T14:55:46.136Z,0.00
2022-12-18T14:56:46.121Z,5.63
2022-12-18T14:57:46.088Z,5.63
2022-12-18T14:58:46.065Z,5.63
2022-12-18T14:59:46.047Z,5.63
2022-12-18T15:00:46.019Z,5.63
2022-12-18T15:01:46.142Z,5.63
2022-12-18T15:02:46.119Z,5.63
2022-12-18T15:03:46.050Z,5.63
2022-12-18T15:04:45.939Z,5.63
2022-12-18T15:05:45.914Z,5.63
2022-12-18T15:06:45.890Z,5.63
2022-12-18T15:07:45.866Z,5.63
2022-12-18T15:08:45.940Z,0.00
2022-12-18T15:09:45.822Z,0.00
2022-12-18T15:10:45.800Z,0.00
2022-12-18T15:11:45.794Z,0.00
2022-12-18T15:12:45.755Z,0.00
2022-12-18T15:13:45.730Z,0.00
2022-12-18T15:14:45.704Z,0.00
2022-12-18T15:15:45.761Z,0.00
2022-12-18T15:16:46.312Z,0.00
2022-12-18T15:17:45.650Z,0.00
2022-12-18T15:18:45.617Z,0.00
2022-12-18T15:19:45.590Z,0.00
2022-12-18T15:20:45.581Z,0.00
2022-12-18T15:21:45.550Z,0.00
2022-12-18T15:22:45.527Z,0.00
2022-12-18T15:23:45.503Z,0.00
2022-12-18T15:24:45.585Z,0.00
2022-12-18T15:25:45.459Z,0.00
2022-12-18T15:26:45.434Z,0.00
2022-12-18T15:27:45.419Z,0.00
2022-12-18T15:28:45.397Z,0.00
2022-12-18T15:29:45.378Z,0.00
2022-12-18T15:30:45.355Z,0.00
2022-12-18T15:31:45.333Z,0.00
2022-12-18T15:32:45.294Z,0.00
2022-12-18T15:33:45.285Z,0.00
2022-12-18T15:34:45.254Z,0.00
2022-12-18T15:35:47.218Z,0.00
2022-12-18T15:36:45.210Z,0.00
2022-12-18T15:37:45.185Z,0.00
2022-12-18T15:38:45.162Z,0.00
2022-12-18T15:39:45.139Z,0.00
2022-12-18T15:40:45.210Z,0.00
2022-12-18T15:41:45.098Z,0.00
2022-12-18T15:42:45.068Z,0.00
2022-12-18T15:43:45.254Z,0.00
2022-12-18T15:44:45.022Z,0.00
2022-12-18T15:45:45.001Z,0.00
2022-12-18T15:46:45.016Z,0.00
2022-12-18T15:47:44.953Z,0.00
2022-12-18T15:48:44.931Z,0.00
2022-12-18T15:49:44.910Z,0.00
2022-12-18T15:50:44.886Z,0.00
2022-12-18T15:51:44.866Z,0.00
2022-12-18T15:52:44.842Z,0.00
2022-12-18T15:53:44.905Z,0.00
2022-12-18T15:54:44.799Z,0.00
2022-12-18T15:55:44.774Z,0.00
2022-12-18T15:56:44.854Z,0.00
2022-12-18T15:57:44.725Z,0.00
2022-12-18T15:58:44.702Z,0.00
2022-12-18T15:59:44.679Z,0.00
2022-12-18T16:00:44.659Z,0.00
2022-12-18T16:01:44.769Z,0.00
2022-12-18T16:02:44.722Z,0.00
2022-12-18T16:03:45.151Z,0.00
2022-12-18T16:04:44.567Z,0.00
2022-12-18T16:05:44.545Z,0.00
2022-12-18T16:07:13.300Z,0.00
2022-12-18T16:07:44.563Z,0.00
2022-12-18T16:08:44.499Z,0.00
2022-12-18T16:09:44.454Z,0.00
2022-12-18T16:10:44.505Z,0.00
2022-12-18T16:11:44.416Z,0.00
2022-12-18T16:12:44.489Z,0.00